sensor_id;sensor_type;location;lat;lon;timestamp;pressure;altitude;pressure_sealevel;temperature;humidity
54194;BME280;40102;50.906;6.972;2023-01-26T00:00:52;101911.59;;;1.87;76.08
54194;BME280;40102;50.906;6.972;2023-01-26T00:03:18;101904.56;;;1.84;76.29
54194;BME280;40102;50.906;6.972;2023-01-26T00:05:44;101901.06;;;1.85;76.47
54194;BME280;40102;50.906;6.972;2023-01-26T00:08:10;101892.25;;;1.88;76.12
54194;BME280;40102;50.906;6.972;2023-01-26T00:10:37;101895.78;;;1.87;76.06
54194;BME280;40102;50.906;6.972;2023-01-26T00:13:03;101894.03;;;1.80;75.56
54194;BME280;40102;50.906;6.972;2023-01-26T00:15:31;101892.28;;;1.73;76.26
54194;BME280;40102;50.906;6.972;2023-01-26T00:17:57;101890.53;;;1.64;76.61
54194;BME280;40102;50.906;6.972;2023-01-26T00:20:23;101896.66;;;1.65;76.95
54194;BME280;40102;50.906;6.972;2023-01-26T00:22:48;101894.91;;;1.63;76.62
54194;BME280;40102;50.906;6.972;2023-01-26T00:25:13;101897.53;;;1.67;76.70
54194;BME280;40102;50.906;6.972;2023-01-26T00:27:39;101887.88;;;1.64;76.41
54194;BME280;40102;50.906;6.972;2023-01-26T00:30:05;101886.13;;;1.61;76.27
54194;BME280;40102;50.906;6.972;2023-01-26T00:32:30;101876.44;;;1.57;76.87
54194;BME280;40102;50.906;6.972;2023-01-26T00:34:55;101881.72;;;1.63;76.84
54194;BME280;40102;50.906;6.972;2023-01-26T00:37:21;101875.56;;;1.66;76.98
54194;BME280;40102;50.906;6.972;2023-01-26T00:39:46;101872.06;;;1.70;76.60
54194;BME280;40102;50.906;6.972;2023-01-26T00:42:12;101854.47;;;1.74;77.19
54194;BME280;40102;50.906;6.972;2023-01-26T00:44:40;101864.13;;;1.79;76.47
54194;BME280;40102;50.906;6.972;2023-01-26T00:47:07;101853.56;;;1.81;76.27
54194;BME280;40102;50.906;6.972;2023-01-26T00:49:35;101860.59;;;1.83;76.04
54194;BME280;40102;50.906;6.972;2023-01-26T00:52:01;101843.91;;;1.81;76.05
54194;BME280;40102;50.906;6.972;2023-01-26T00:54:27;101849.19;;;1.75;75.77
54194;BME280;40102;50.906;6.972;2023-01-26T00:56:53;101855.34;;;1.74;76.00
54194;BME280;40102;50.906;6.972;2023-01-26T00:59:19;101862.38;;;1.74;76.04
54194;BME280;40102;50.906;6.972;2023-01-26T01:01:44;101858.88;;;1.59;74.57
54194;BME280;40102;50.906;6.972;2023-01-26T01:04:10;101857.13;;;1.51;75.52
54194;BME280;40102;50.906;6.972;2023-01-26T01:06:35;101856.25;;;1.50;76.20
54194;BME280;40102;50.906;6.972;2023-01-26T01:09:00;101852.72;;;1.47;75.86
54194;BME280;40102;50.906;6.972;2023-01-26T01:11:26;101858.88;;;1.41;75.71
54194;BME280;40102;50.906;6.972;2023-01-26T01:13:51;101840.41;;;1.41;76.45
54194;BME280;40102;50.906;6.972;2023-01-26T01:16:17;101844.81;;;1.50;76.57
54194;BME280;40102;50.906;6.972;2023-01-26T01:18:42;101848.31;;;1.50;76.36
54194;BME280;40102;50.906;6.972;2023-01-26T01:21:15;101844.81;;;1.44;75.93
54194;BME280;40102;50.906;6.972;2023-01-26T01:23:42;101840.41;;;1.44;76.39
54194;BME280;40102;50.906;6.972;2023-01-26T01:26:08;101848.34;;;1.47;76.40
54194;BME280;40102;50.906;6.972;2023-01-26T01:28:35;101840.41;;;1.41;75.59
54194;BME280;40102;50.906;6.972;2023-01-26T01:31:08;101841.31;;;1.34;75.91
54194;BME280;40102;50.906;6.972;2023-01-26T01:33:35;101838.66;;;1.36;76.49
54194;BME280;40102;50.906;6.972;2023-01-26T01:36:03;101836.91;;;1.35;76.22
54194;BME280;40102;50.906;6.972;2023-01-26T01:38:29;101824.59;;;1.30;76.26
54194;BME280;40102;50.906;6.972;2023-01-26T01:40:55;101829.00;;;1.21;75.76
54194;BME280;40102;50.906;6.972;2023-01-26T01:43:22;101834.28;;;1.15;75.86
54194;BME280;40102;50.906;6.972;2023-01-26T01:45:49;101822.84;;;1.05;76.12
54194;BME280;40102;50.906;6.972;2023-01-26T01:51:04;101826.34;;;0.93;77.29
54194;BME280;40102;50.906;6.972;2023-01-26T01:53:36;101821.03;;;0.77;77.07
54194;BME280;40102;50.906;6.972;2023-01-26T01:56:05;101818.41;;;0.72;78.27
54194;BME280;40102;50.906;6.972;2023-01-26T01:58:35;101832.47;;;0.77;78.79
54194;BME280;40102;50.906;6.972;2023-01-26T02:01:01;101824.56;;;0.82;78.75
54194;BME280;40102;50.906;6.972;2023-01-26T02:03:27;101813.16;;;0.83;78.57
54194;BME280;40102;50.906;6.972;2023-01-26T02:06:13;101807.88;;;0.84;78.56
54194;BME280;40102;50.906;6.972;2023-01-26T02:08:46;101801.75;;;0.84;78.42
54194;BME280;40102;50.906;6.972;2023-01-26T02:11:41;101807.03;;;0.90;78.82
54194;BME280;40102;50.906;6.972;2023-01-26T02:14:10;101802.63;;;0.87;77.99
54194;BME280;40102;50.906;6.972;2023-01-26T02:16:42;101804.38;;;0.78;77.51
54194;BME280;40102;50.906;6.972;2023-01-26T02:19:13;101796.47;;;0.73;78.46
54194;BME280;40102;50.906;6.972;2023-01-26T02:21:44;101790.31;;;0.77;78.13
54194;BME280;40102;50.906;6.972;2023-01-26T02:24:31;101791.19;;;0.72;78.05
54194;BME280;40102;50.906;6.972;2023-01-26T02:26:58;101786.81;;;0.71;78.53
54194;BME280;40102;50.906;6.972;2023-01-26T02:29:24;101793.81;;;0.70;78.56
54194;BME280;40102;50.906;6.972;2023-01-26T02:31:49;101786.78;;;0.66;78.64
54194;BME280;40102;50.906;6.972;2023-01-26T02:34:15;101786.78;;;0.66;78.81
54194;BME280;40102;50.906;6.972;2023-01-26T02:36:41;101785.03;;;0.70;79.38
54194;BME280;40102;50.906;6.972;2023-01-26T02:39:28;101777.16;;;0.79;78.98
54194;BME280;40102;50.906;6.972;2023-01-26T02:41:56;101765.75;;;0.77;78.87
54194;BME280;40102;50.906;6.972;2023-01-26T02:44:42;101778.03;;;0.72;78.66
54194;BME280;40102;50.906;6.972;2023-01-26T02:47:18;101769.25;;;0.71;78.64
54194;BME280;40102;50.906;6.972;2023-01-26T02:49:43;101772.75;;;0.67;78.68
54194;BME280;40102;50.906;6.972;2023-01-26T02:52:13;101765.72;;;0.64;78.72
54194;BME280;40102;50.906;6.972;2023-01-26T02:54:39;101759.59;;;0.73;78.84
54194;BME280;40102;50.906;6.972;2023-01-26T02:57:23;101753.44;;;0.80;78.56
54194;BME280;40102;50.906;6.972;2023-01-26T02:59:50;101753.44;;;0.79;78.16
54194;BME280;40102;50.906;6.972;2023-01-26T03:02:15;101750.81;;;0.82;78.44
54194;BME280;40102;50.906;6.972;2023-01-26T03:04:41;101752.56;;;0.87;78.03
54194;BME280;40102;50.906;6.972;2023-01-26T03:07:07;101757.84;;;0.89;78.13
54194;BME280;40102;50.906;6.972;2023-01-26T03:09:32;101756.97;;;0.88;78.19
54194;BME280;40102;50.906;6.972;2023-01-26T03:11:58;101746.44;;;0.82;78.34
54194;BME280;40102;50.906;6.972;2023-01-26T03:14:23;101745.56;;;0.89;78.29
54194;BME280;40102;50.906;6.972;2023-01-26T03:16:49;101742.91;;;0.91;78.23
54194;BME280;40102;50.906;6.972;2023-01-26T03:19:14;101739.41;;;0.93;78.21
54194;BME280;40102;50.906;6.972;2023-01-26T03:21:59;101744.69;;;0.96;77.93
54194;BME280;40102;50.906;6.972;2023-01-26T03:24:44;101749.06;;;0.99;77.74
54194;BME280;40102;50.906;6.972;2023-01-26T03:27:40;101747.31;;;0.98;77.86
54194;BME280;40102;50.906;6.972;2023-01-26T03:30:07;101735.91;;;0.99;77.61
54194;BME280;40102;50.906;6.972;2023-01-26T03:32:32;101732.38;;;0.98;77.81
54194;BME280;40102;50.906;6.972;2023-01-26T03:34:58;101741.16;;;0.97;77.45
54194;BME280;40102;50.906;6.972;2023-01-26T03:37:23;101742.91;;;0.95;77.57
54194;BME280;40102;50.906;6.972;2023-01-26T03:39:49;101731.50;;;0.87;77.48
54194;BME280;40102;50.906;6.972;2023-01-26T03:42:34;101737.66;;;0.88;77.68
54194;BME280;40102;50.906;6.972;2023-01-26T03:45:17;101734.13;;;0.81;77.92
54194;BME280;40102;50.906;6.972;2023-01-26T03:48:09;101731.50;;;0.86;78.37
54194;BME280;40102;50.906;6.972;2023-01-26T03:50:54;101727.13;;;0.91;78.52
54194;BME280;40102;50.906;6.972;2023-01-26T03:53:37;101714.81;;;0.94;78.40
54194;BME280;40102;50.906;6.972;2023-01-26T03:56:22;101727.09;;;1.03;78.27
54194;BME280;40102;50.906;6.972;2023-01-26T03:58:54;101730.63;;;1.07;78.30
54194;BME280;40102;50.906;6.972;2023-01-26T04:01:21;101726.22;;;1.12;78.21
54194;BME280;40102;50.906;6.972;2023-01-26T04:03:53;101727.97;;;1.17;78.03
54194;BME280;40102;50.906;6.972;2023-01-26T04:06:39;101727.97;;;1.23;77.75
54194;BME280;40102;50.906;6.972;2023-01-26T04:09:23;101720.94;;;1.25;77.60
54194;BME280;40102;50.906;6.972;2023-01-26T04:11:49;101724.44;;;1.29;77.57
54194;BME280;40102;50.906;6.972;2023-01-26T04:14:15;101718.31;;;1.24;76.86
54194;BME280;40102;50.906;6.972;2023-01-26T04:17:01;101710.41;;;1.12;77.12
54194;BME280;40102;50.906;6.972;2023-01-26T04:19:45;101715.69;;;1.01;77.49
54194;BME280;40102;50.906;6.972;2023-01-26T04:22:30;101713.06;;;0.93;77.90
54194;BME280;40102;50.906;6.972;2023-01-26T04:24:58;101717.47;;;0.88;78.41
54194;BME280;40102;50.906;6.972;2023-01-26T04:27:24;101715.69;;;0.87;78.87
54194;BME280;40102;50.906;6.972;2023-01-26T04:29:49;101715.69;;;0.78;78.67
54194;BME280;40102;50.906;6.972;2023-01-26T04:32:14;101720.09;;;0.73;79.44
54194;BME280;40102;50.906;6.972;2023-01-26T04:34:40;101713.94;;;0.73;79.91
54194;BME280;40102;50.906;6.972;2023-01-26T04:37:05;101707.78;;;0.74;80.20
54194;BME280;40102;50.906;6.972;2023-01-26T04:39:31;101703.41;;;0.73;80.36
54194;BME280;40102;50.906;6.972;2023-01-26T04:41:56;101710.44;;;0.77;80.68
54194;BME280;40102;50.906;6.972;2023-01-26T04:44:21;101711.31;;;0.77;80.82
54194;BME280;40102;50.906;6.972;2023-01-26T04:46:47;101715.69;;;0.90;80.78
54194;BME280;40102;50.906;6.972;2023-01-26T04:49:13;101721.84;;;0.97;80.36
54194;BME280;40102;50.906;6.972;2023-01-26T04:51:39;101715.69;;;1.00;79.64
54194;BME280;40102;50.906;6.972;2023-01-26T04:54:05;101715.69;;;0.95;78.92
54194;BME280;40102;50.906;6.972;2023-01-26T04:56:33;101708.69;;;0.91;78.82
54194;BME280;40102;50.906;6.972;2023-01-26T04:59:02;101713.06;;;0.83;78.93
54194;BME280;40102;50.906;6.972;2023-01-26T05:01:28;101717.44;;;0.73;78.84
54194;BME280;40102;50.906;6.972;2023-01-26T05:03:53;101720.97;;;0.63;79.64
54194;BME280;40102;50.906;6.972;2023-01-26T05:06:19;101711.31;;;0.63;80.61
54194;BME280;40102;50.906;6.972;2023-01-26T05:08:44;101721.84;;;0.71;81.05
54194;BME280;40102;50.906;6.972;2023-01-26T05:11:10;101716.56;;;0.80;80.92
54194;BME280;40102;50.906;6.972;2023-01-26T05:13:35;101715.69;;;0.86;80.78
54194;BME280;40102;50.906;6.972;2023-01-26T05:16:02;101713.94;;;0.92;80.44
54194;BME280;40102;50.906;6.972;2023-01-26T05:18:28;101719.22;;;0.97;80.05
54194;BME280;40102;50.906;6.972;2023-01-26T05:20:54;101719.22;;;1.00;79.75
54194;BME280;40102;50.906;6.972;2023-01-26T05:23:19;101723.59;;;1.01;79.45
54194;BME280;40102;50.906;6.972;2023-01-26T05:25:44;101728.00;;;1.02;78.83
54194;BME280;40102;50.906;6.972;2023-01-26T05:28:10;101720.97;;;0.92;78.29
54194;BME280;40102;50.906;6.972;2023-01-26T05:30:35;101733.25;;;0.78;78.67
54194;BME280;40102;50.906;6.972;2023-01-26T05:33:02;101726.22;;;0.63;79.35
54194;BME280;40102;50.906;6.972;2023-01-26T05:35:28;101721.84;;;0.57;80.35
54194;BME280;40102;50.906;6.972;2023-01-26T05:37:54;101728.84;;;0.60;81.18
54194;BME280;40102;50.906;6.972;2023-01-26T05:40:19;101735.00;;;0.67;81.20
54194;BME280;40102;50.906;6.972;2023-01-26T05:42:46;101728.00;;;0.70;81.13
54194;BME280;40102;50.906;6.972;2023-01-26T05:45:11;101733.25;;;0.78;80.97
54194;BME280;40102;50.906;6.972;2023-01-26T05:47:36;101730.63;;;0.79;80.58
54194;BME280;40102;50.906;6.972;2023-01-26T05:50:03;101720.09;;;0.82;80.33
54194;BME280;40102;50.906;6.972;2023-01-26T05:52:28;101728.00;;;0.79;80.10
54194;BME280;40102;50.906;6.972;2023-01-26T05:54:53;101728.88;;;0.68;79.86
54194;BME280;40102;50.906;6.972;2023-01-26T05:57:19;101728.84;;;0.54;79.99
54194;BME280;40102;50.906;6.972;2023-01-26T05:59:44;101730.59;;;0.47;80.76
54194;BME280;40102;50.906;6.972;2023-01-26T06:02:13;101732.34;;;0.48;81.58
54194;BME280;40102;50.906;6.972;2023-01-26T06:04:38;101734.97;;;0.47;81.66
54194;BME280;40102;50.906;6.972;2023-01-26T06:07:06;101734.09;;;0.48;81.34
54194;BME280;40102;50.906;6.972;2023-01-26T06:09:32;101734.09;;;0.49;81.79
54194;BME280;40102;50.906;6.972;2023-01-26T06:11:57;101733.22;;;0.49;81.63
54194;BME280;40102;50.906;6.972;2023-01-26T06:14:22;101729.72;;;0.47;81.72
54194;BME280;40102;50.906;6.972;2023-01-26T06:16:48;101733.22;;;0.49;81.99
54194;BME280;40102;50.906;6.972;2023-01-26T06:19:13;101736.75;;;0.51;82.04
54194;BME280;40102;50.906;6.972;2023-01-26T06:21:39;101735.00;;;0.53;82.05
54194;BME280;40102;50.906;6.972;2023-01-26T06:24:05;101742.88;;;0.56;81.94
54194;BME280;40102;50.906;6.972;2023-01-26T06:26:30;101741.13;;;0.56;81.75
54194;BME280;40102;50.906;6.972;2023-01-26T06:28:56;101743.75;;;0.55;81.67
54194;BME280;40102;50.906;6.972;2023-01-26T06:31:21;101749.03;;;0.53;81.76
54194;BME280;40102;50.906;6.972;2023-01-26T06:33:53;101748.16;;;0.53;81.96
54194;BME280;40102;50.906;6.972;2023-01-26T06:36:19;101745.53;;;0.60;82.17
54194;BME280;40102;50.906;6.972;2023-01-26T06:38:46;101740.25;;;0.59;82.24
54194;BME280;40102;50.906;6.972;2023-01-26T06:41:18;101745.53;;;0.60;81.70
54194;BME280;40102;50.906;6.972;2023-01-26T06:43:45;101754.31;;;0.62;81.88
54194;BME280;40102;50.906;6.972;2023-01-26T06:46:11;101747.28;;;0.61;81.42
54194;BME280;40102;50.906;6.972;2023-01-26T06:48:36;101756.06;;;0.63;81.76
54194;BME280;40102;50.906;6.972;2023-01-26T06:53:51;101762.22;;;0.72;81.91
54194;BME280;40102;50.906;6.972;2023-01-26T06:56:18;101759.59;;;0.78;81.80
54194;BME280;40102;50.906;6.972;2023-01-26T06:58:43;101756.09;;;0.79;81.38
54194;BME280;40102;50.906;6.972;2023-01-26T07:01:13;101755.19;;;0.75;81.04
54194;BME280;40102;50.906;6.972;2023-01-26T07:03:41;101759.59;;;0.70;81.18
54194;BME280;40102;50.906;6.972;2023-01-26T07:06:06;101758.69;;;0.67;81.31
54194;BME280;40102;50.906;6.972;2023-01-26T07:08:35;101755.19;;;0.64;81.41
54194;BME280;40102;50.906;6.972;2023-01-26T07:11:00;101755.19;;;0.58;81.58
54194;BME280;40102;50.906;6.972;2023-01-26T07:13:26;101761.31;;;0.53;81.85
54194;BME280;40102;50.906;6.972;2023-01-26T07:16:08;101772.72;;;0.55;82.50
54194;BME280;40102;50.906;6.972;2023-01-26T07:18:34;101770.97;;;0.61;nan
54194;BME280;40102;50.906;6.972;2023-01-26T07:21:02;101765.72;;;1.45;100.00
54194;BME280;40102;50.906;6.972;2023-01-26T07:23:28;101754.19;;;1.83;97.89
54194;BME280;40102;50.906;6.972;2023-01-26T07:25:54;101752.41;;;1.89;92.21
54194;BME280;40102;50.906;6.972;2023-01-26T07:28:19;101751.56;;;1.83;87.88
54194;BME280;40102;50.906;6.972;2023-01-26T07:30:44;101748.06;;;1.75;84.99
54194;BME280;40102;50.906;6.972;2023-01-26T07:33:10;101750.72;;;1.67;83.51
54194;BME280;40102;50.906;6.972;2023-01-26T07:35:35;101738.44;;;1.57;82.33
54194;BME280;40102;50.906;6.972;2023-01-26T07:38:03;101746.38;;;1.43;81.68
54194;BME280;40102;50.906;6.972;2023-01-26T07:40:28;101753.44;;;1.37;81.71
54194;BME280;40102;50.906;6.972;2023-01-26T07:42:54;101749.91;;;1.33;81.71
54194;BME280;40102;50.906;6.972;2023-01-26T07:45:20;101753.44;;;1.26;81.13
54194;BME280;40102;50.906;6.972;2023-01-26T07:47:45;101756.09;;;1.20;81.40
54194;BME280;40102;50.906;6.972;2023-01-26T07:50:11;101754.31;;;1.16;81.75
54194;BME280;40102;50.906;6.972;2023-01-26T07:52:37;101755.22;;;1.15;81.91
54194;BME280;40102;50.906;6.972;2023-01-26T07:55:03;101761.34;;;1.17;81.83
54194;BME280;40102;50.906;6.972;2023-01-26T07:57:28;101748.19;;;1.18;81.75
54194;BME280;40102;50.906;6.972;2023-01-26T07:59:54;101749.94;;;1.15;81.53
54194;BME280;40102;50.906;6.972;2023-01-26T08:02:19;101755.22;;;1.03;81.17
54194;BME280;40102;50.906;6.972;2023-01-26T08:04:45;101757.84;;;0.87;81.59
54194;BME280;40102;50.906;6.972;2023-01-26T08:07:10;101771.00;;;0.78;82.11
54194;BME280;40102;50.906;6.972;2023-01-26T08:09:36;101762.22;;;0.75;83.12
54194;BME280;40102;50.906;6.972;2023-01-26T08:12:01;101749.94;;;0.78;83.56
54194;BME280;40102;50.906;6.972;2023-01-26T08:14:26;101751.69;;;0.85;83.58
54194;BME280;40102;50.906;6.972;2023-01-26T08:16:52;101756.97;;;0.82;83.08
54194;BME280;40102;50.906;6.972;2023-01-26T08:19:17;101753.44;;;0.83;83.47
54194;BME280;40102;50.906;6.972;2023-01-26T08:21:43;101756.97;;;0.88;83.70
54194;BME280;40102;50.906;6.972;2023-01-26T08:24:10;101758.72;;;0.95;83.64
54194;BME280;40102;50.906;6.972;2023-01-26T08:26:36;101750.81;;;1.00;83.49
54194;BME280;40102;50.906;6.972;2023-01-26T08:29:01;101761.38;;;1.06;83.27
54194;BME280;40102;50.906;6.972;2023-01-26T08:31:27;101756.97;;;1.14;82.75
54194;BME280;40102;50.906;6.972;2023-01-26T08:33:52;101769.25;;;1.20;82.31
54194;BME280;40102;50.906;6.972;2023-01-26T08:36:20;101772.78;;;1.16;81.48
54194;BME280;40102;50.906;6.972;2023-01-26T08:38:46;101770.16;;;1.07;81.14
54194;BME280;40102;50.906;6.972;2023-01-26T08:41:11;101769.25;;;1.03;81.59
54194;BME280;40102;50.906;6.972;2023-01-26T08:43:37;101768.38;;;1.01;81.84
54194;BME280;40102;50.906;6.972;2023-01-26T08:46:03;101776.28;;;1.01;81.80
54194;BME280;40102;50.906;6.972;2023-01-26T08:48:29;101778.94;;;0.93;81.80
54194;BME280;40102;50.906;6.972;2023-01-26T08:50:57;101782.44;;;0.91;82.14
54194;BME280;40102;50.906;6.972;2023-01-26T08:53:24;101776.28;;;0.87;82.38
54194;BME280;40102;50.906;6.972;2023-01-26T08:55:50;101778.91;;;0.92;82.41
54194;BME280;40102;50.906;6.972;2023-01-26T08:58:16;101784.19;;;0.95;82.71
54194;BME280;40102;50.906;6.972;2023-01-26T09:00:41;101790.34;;;1.05;82.63
54194;BME280;40102;50.906;6.972;2023-01-26T09:03:07;101784.19;;;1.04;82.03
54194;BME280;40102;50.906;6.972;2023-01-26T09:05:36;101792.09;;;0.96;81.87
54194;BME280;40102;50.906;6.972;2023-01-26T09:08:03;101784.19;;;0.87;81.71
54194;BME280;40102;50.906;6.972;2023-01-26T09:10:29;101785.94;;;0.79;82.58
54194;BME280;40102;50.906;6.972;2023-01-26T09:12:59;101789.44;;;0.75;82.86
54194;BME280;40102;50.906;6.972;2023-01-26T09:15:25;101792.06;;;0.77;83.35
54194;BME280;40102;50.906;6.972;2023-01-26T09:17:51;101795.59;;;0.85;83.83
54194;BME280;40102;50.906;6.972;2023-01-26T09:20:17;101793.84;;;1.01;83.73
54194;BME280;40102;50.906;6.972;2023-01-26T09:22:43;101788.59;;;1.07;82.99
54194;BME280;40102;50.906;6.972;2023-01-26T09:25:09;101794.75;;;1.15;82.70
54194;BME280;40102;50.906;6.972;2023-01-26T09:27:35;101794.75;;;1.15;82.18
54194;BME280;40102;50.906;6.972;2023-01-26T09:30:01;101789.47;;;1.19;82.21
54194;BME280;40102;50.906;6.972;2023-01-26T09:32:26;101792.97;;;1.26;81.99
54194;BME280;40102;50.906;6.972;2023-01-26T09:34:51;101794.72;;;1.33;81.57
54194;BME280;40102;50.906;6.972;2023-01-26T09:37:17;101798.25;;;1.38;81.09
54194;BME280;40102;50.906;6.972;2023-01-26T09:39:42;101793.84;;;1.43;80.90
54194;BME280;40102;50.906;6.972;2023-01-26T09:45:26;101799.09;;;1.51;80.09
54194;BME280;40102;50.906;6.972;2023-01-26T09:51:17;101792.94;;;1.53;80.17
54194;BME280;40102;50.906;6.972;2023-01-26T09:53:30;101794.72;;;1.53;79.79
54194;BME280;40102;50.906;6.972;2023-01-26T09:55:56;101785.94;;;1.49;79.84
54194;BME280;40102;50.906;6.972;2023-01-26T09:58:31;101801.75;;;1.51;79.95
54194;BME280;40102;50.906;6.972;2023-01-26T10:00:59;101804.38;;;1.51;80.16
54194;BME280;40102;50.906;6.972;2023-01-26T10:03:34;101807.91;;;1.53;80.47
54194;BME280;40102;50.906;6.972;2023-01-26T10:08:32;101799.09;;;1.52;80.28
54194;BME280;40102;50.906;6.972;2023-01-26T10:13:23;101788.56;;;1.46;80.71
54194;BME280;40102;50.906;6.972;2023-01-26T10:15:58;101787.69;;;1.49;80.80
54194;BME280;40102;50.906;6.972;2023-01-26T10:21:11;101782.41;;;1.56;80.81
54194;BME280;40102;50.906;6.972;2023-01-26T10:23:42;101781.50;;;1.60;80.84
54194;BME280;40102;50.906;6.972;2023-01-26T10:26:19;101786.78;;;1.63;80.79
54194;BME280;40102;50.906;6.972;2023-01-26T10:28:47;101789.41;;;1.68;80.54
54194;BME280;40102;50.906;6.972;2023-01-26T10:31:27;101784.13;;;1.65;80.36
54194;BME280;40102;50.906;6.972;2023-01-26T10:33:58;101779.75;;;1.59;80.27
54194;BME280;40102;50.906;6.972;2023-01-26T10:36:28;101773.63;;;1.50;80.45
54194;BME280;40102;50.906;6.972;2023-01-26T10:39:05;101766.59;;;1.46;81.59
54194;BME280;40102;50.906;6.972;2023-01-26T10:41:31;101771.88;;;1.47;81.64
54194;BME280;40102;50.906;6.972;2023-01-26T10:43:59;101770.09;;;1.51;81.66
54194;BME280;40102;50.906;6.972;2023-01-26T10:46:28;101767.47;;;1.54;81.73
54194;BME280;40102;50.906;6.972;2023-01-26T10:49:14;101758.66;;;1.56;81.62
54194;BME280;40102;50.906;6.972;2023-01-26T10:51:45;101761.31;;;1.56;81.67
54194;BME280;40102;50.906;6.972;2023-01-26T10:54:29;101749.00;;;1.54;81.63
54194;BME280;40102;50.906;6.972;2023-01-26T10:57:00;101746.34;;;1.55;81.80
54194;BME280;40102;50.906;6.972;2023-01-26T10:59:33;101745.47;;;1.61;81.66
54194;BME280;40102;50.906;6.972;2023-01-26T11:05:12;101737.56;;;1.59;81.63
54194;BME280;40102;50.906;6.972;2023-01-26T11:07:40;101742.84;;;1.55;81.48
54194;BME280;40102;50.906;6.972;2023-01-26T11:12:50;101736.72;;;1.44;82.06
54194;BME280;40102;50.906;6.972;2023-01-26T11:18:02;101737.59;;;1.38;83.17
54194;BME280;40102;50.906;6.972;2023-01-26T11:25:59;101736.69;;;1.51;83.28
54194;BME280;40102;50.906;6.972;2023-01-26T11:34:28;101735.78;;;1.66;82.55
54194;BME280;40102;50.906;6.972;2023-01-26T11:40:31;101726.09;;;1.74;82.31
54194;BME280;40102;50.906;6.972;2023-01-26T11:46:05;101720.81;;;1.71;82.00
54194;BME280;40102;50.906;6.972;2023-01-26T11:56:48;101711.13;;;1.73;82.56
54194;BME280;40102;50.906;6.972;2023-01-26T11:59:37;101711.13;;;1.79;82.47
54194;BME280;40102;50.906;6.972;2023-01-26T12:02:20;101705.84;;;1.81;82.12
54194;BME280;40102;50.906;6.972;2023-01-26T12:04:48;101697.94;;;1.79;82.02
54194;BME280;40102;50.906;6.972;2023-01-26T12:07:19;101699.69;;;1.80;82.22
54194;BME280;40102;50.906;6.972;2023-01-26T12:09:47;101701.44;;;1.80;82.37
54194;BME280;40102;50.906;6.972;2023-01-26T12:12:15;101703.19;;;1.81;82.58
54194;BME280;40102;50.906;6.972;2023-01-26T12:15:05;101704.09;;;1.80;82.72
54194;BME280;40102;50.906;6.972;2023-01-26T12:20:35;101702.31;;;1.79;82.58
54194;BME280;40102;50.906;6.972;2023-01-26T12:25:34;101697.91;;;1.81;82.58
54194;BME280;40102;50.906;6.972;2023-01-26T12:28:07;101691.78;;;1.77;82.67
54194;BME280;40102;50.906;6.972;2023-01-26T12:30:54;101689.16;;;1.76;82.39
54194;BME280;40102;50.906;6.972;2023-01-26T12:33:23;101689.16;;;1.73;82.50
54194;BME280;40102;50.906;6.972;2023-01-26T12:38:59;101669.84;;;1.68;83.07
54194;BME280;40102;50.906;6.972;2023-01-26T12:41:32;101680.38;;;1.69;83.29
54194;BME280;40102;50.906;6.972;2023-01-26T12:44:36;101663.69;;;1.70;83.41
54194;BME280;40102;50.906;6.972;2023-01-26T12:49:34;101659.25;;;1.75;83.56
54194;BME280;40102;50.906;6.972;2023-01-26T12:52:07;101664.53;;;1.78;83.15
54194;BME280;40102;50.906;6.972;2023-01-26T12:54:55;101662.75;;;1.79;83.01
54194;BME280;40102;50.906;6.972;2023-01-26T12:57:28;101650.47;;;1.75;82.64
54194;BME280;40102;50.906;6.972;2023-01-26T13:00:03;101654.88;;;1.74;83.07
54194;BME280;40102;50.906;6.972;2023-01-26T13:02:32;101648.72;;;1.74;83.18
54194;BME280;40102;50.906;6.972;2023-01-26T13:05:01;101654.88;;;1.73;83.12
54194;BME280;40102;50.906;6.972;2023-01-26T13:13:24;101647.81;;;1.75;83.25
54194;BME280;40102;50.906;6.972;2023-01-26T13:15:46;101637.28;;;1.73;83.04
54194;BME280;40102;50.906;6.972;2023-01-26T13:19:02;101641.66;;;1.77;83.29
54194;BME280;40102;50.906;6.972;2023-01-26T13:21:40;101643.41;;;1.80;83.47
54194;BME280;40102;50.906;6.972;2023-01-26T13:27:25;101637.22;;;1.84;83.19
54194;BME280;40102;50.906;6.972;2023-01-26T13:29:52;101645.13;;;1.85;83.25
54194;BME280;40102;50.906;6.972;2023-01-26T13:34:58;101650.44;;;1.82;83.06
54194;BME280;40102;50.906;6.972;2023-01-26T13:40:33;101645.13;;;1.87;83.44
54194;BME280;40102;50.906;6.972;2023-01-26T13:48:44;101642.47;;;1.91;83.03
54194;BME280;40102;50.906;6.972;2023-01-26T13:51:13;101635.44;;;1.89;83.01
54194;BME280;40102;50.906;6.972;2023-01-26T13:53:43;101638.09;;;1.87;83.40
54194;BME280;40102;50.906;6.972;2023-01-26T13:56:26;101647.75;;;1.90;83.74
54194;BME280;40102;50.906;6.972;2023-01-26T13:58:52;101646.00;;;1.90;84.09
54194;BME280;40102;50.906;6.972;2023-01-26T14:01:19;101651.25;;;1.90;84.25
54194;BME280;40102;50.906;6.972;2023-01-26T14:03:44;101654.78;;;1.92;84.26
54194;BME280;40102;50.906;6.972;2023-01-26T14:06:16;101645.09;;;1.94;84.27
54194;BME280;40102;50.906;6.972;2023-01-26T14:08:54;101650.38;;;1.94;84.52
54194;BME280;40102;50.906;6.972;2023-01-26T14:11:22;101647.69;;;1.99;84.35
54194;BME280;40102;50.906;6.972;2023-01-26T14:13:59;101647.69;;;1.99;84.41
54194;BME280;40102;50.906;6.972;2023-01-26T14:16:29;101653.88;;;1.98;84.00
54194;BME280;40102;50.906;6.972;2023-01-26T14:21:47;101649.47;;;1.97;84.03
54194;BME280;40102;50.906;6.972;2023-01-26T14:24:13;101652.97;;;2.01;84.14
54194;BME280;40102;50.906;6.972;2023-01-26T14:26:39;101652.97;;;1.99;84.32
54194;BME280;40102;50.906;6.972;2023-01-26T14:29:11;101651.19;;;2.03;84.58
54194;BME280;40102;50.906;6.972;2023-01-26T14:31:38;101652.06;;;2.03;84.26
54194;BME280;40102;50.906;6.972;2023-01-26T14:34:08;101655.59;;;2.04;84.12
54194;BME280;40102;50.906;6.972;2023-01-26T14:36:34;101653.84;;;2.03;84.34
54194;BME280;40102;50.906;6.972;2023-01-26T14:39:13;101648.56;;;2.04;84.17